Time;durP1;ratioP1;P1;durP2;ratioP2;P2;SDS_P1;SDS_P2;PMS_P1;PMS_P2;Temp;Humidity;BMP_temperature;BMP_pressure;BME280_temperature;BME280_humidity;BME280_pressure;Samples;Min_cycle;Max_cycle;Signal;HPM_P1;HPM_P2
2022/06/04 00:00:23;;;;;;;5.03;4.47;;;18.60;99.90;;;;;;5138900;27;20536;-72
2022/06/04 00:02:50;;;;;;;3.70;3.40;;;18.60;99.90;;;;;;5137666;27;20804;-72
2022/06/04 00:05:21;;;;;;;4.93;4.53;;;18.60;99.90;;;;;;5137381;27;20475;-73
2022/06/04 00:07:50;;;;;;;4.53;4.23;;;18.60;99.90;;;;;;5137634;27;20508;-73
2022/06/04 00:15:52;;;;;;;5.60;3.70;;;18.60;99.90;;;;;;5138478;27;20735;-72
2022/06/04 00:18:21;;;;;;;4.67;4.27;;;18.60;99.90;;;;;;5139285;27;20443;-72
2022/06/04 00:20:49;;;;;;;5.33;4.93;;;18.60;99.90;;;;;;5138283;27;20447;-73
2022/06/04 00:23:19;;;;;;;5.17;4.77;;;18.60;99.90;;;;;;5138639;27;20885;-72
2022/06/04 00:25:50;;;;;;;4.80;4.30;;;18.50;99.90;;;;;;5137744;27;20808;-74
2022/06/04 00:28:19;;;;;;;5.87;5.17;;;18.50;99.90;;;;;;5138359;27;20513;-73
2022/06/04 00:30:46;;;;;;;4.70;4.30;;;18.40;99.90;;;;;;5138604;27;20444;-72
2022/06/04 00:33:15;;;;;;;5.30;4.80;;;18.40;99.90;;;;;;5138969;27;20478;-72
2022/06/04 00:35:43;;;;;;;4.07;3.77;;;18.40;99.90;;;;;;5138821;27;20448;-72
2022/06/04 00:38:14;;;;;;;4.20;3.90;;;18.50;99.90;;;;;;5138498;27;20451;-73
2022/06/04 00:40:47;;;;;;;5.73;5.07;;;18.50;99.90;;;;;;5138826;27;20536;-72
2022/06/04 00:43:17;;;;;;;6.67;5.30;;;18.60;99.90;;;;;;5138982;27;20444;-73
2022/06/04 00:46:17;;;;;;;5.33;4.93;;;18.40;99.90;;;;;;5138538;27;20448;-72
2022/06/04 00:48:44;;;;;;;6.27;5.77;;;18.40;99.90;;;;;;5138644;27;20440;-73
2022/06/04 00:51:11;;;;;;;7.00;6.20;;;18.40;99.90;;;;;;5137515;27;20455;-72
2022/06/04 00:53:39;;;;;;;6.20;5.57;;;18.40;99.90;;;;;;5138390;27;20860;-72
2022/06/04 00:56:15;;;;;;;6.10;5.50;;;18.40;99.90;;;;;;5138255;27;20953;-72
2022/06/04 00:59:07;;;;;;;5.73;5.20;;;18.30;99.90;;;;;;5136875;27;20496;-72
2022/06/04 01:01:40;;;;;;;5.67;5.17;;;18.30;99.90;;;;;;5135007;27;20464;-73
2022/06/04 01:04:47;;;;;;;5.43;5.00;;;18.30;99.90;;;;;;5138950;27;20509;-72
2022/06/04 01:07:12;;;;;;;6.57;5.97;;;18.30;99.90;;;;;;5136637;27;20474;-72
2022/06/04 01:09:53;;;;;;;5.67;5.17;;;18.30;99.90;;;;;;5136828;27;20782;-72
2022/06/04 01:12:44;;;;;;;6.77;6.17;;;18.30;99.90;;;;;;5137854;27;20845;-73
2022/06/04 01:15:24;;;;;;;5.60;5.10;;;18.30;99.90;;;;;;5137906;27;20436;-73
2022/06/04 01:18:04;;;;;;;6.10;5.67;;;18.30;99.90;;;;;;5138357;27;20804;-73
2022/06/04 01:20:39;;;;;;;7.17;5.40;;;18.30;99.90;;;;;;5138070;27;20486;-73
2022/06/04 01:23:42;;;;;;;9.50;6.97;;;18.40;99.90;;;;;;5137462;27;20455;-73
2022/06/04 01:26:52;;;;;;;6.70;6.10;;;18.50;99.90;;;;;;5136759;27;20455;-72
2022/06/04 01:29:23;;;;;;;6.50;5.30;;;18.50;99.90;;;;;;5126801;27;20532;-72
2022/06/04 01:32:03;;;;;;;8.97;5.80;;;18.60;99.90;;;;;;5136942;27;20678;-73
2022/06/04 01:34:35;;;;;;;6.90;6.20;;;18.50;99.90;;;;;;5136764;27;20875;-73
2022/06/04 01:37:09;;;;;;;6.77;6.23;;;18.50;99.90;;;;;;5137125;27;20448;-73
2022/06/04 01:42:29;;;;;;;5.63;5.23;;;18.30;99.90;;;;;;5136432;27;20569;-73
2022/06/04 01:45:00;;;;;;;6.63;5.93;;;18.20;99.90;;;;;;5136632;27;20450;-72
2022/06/04 01:47:29;;;;;;;6.57;5.97;;;18.20;99.90;;;;;;5137284;27;20459;-72
2022/06/04 01:49:57;;;;;;;6.77;6.17;;;18.10;99.90;;;;;;5137296;27;20436;-73
2022/06/04 01:52:28;;;;;;;5.20;4.80;;;18.10;99.90;;;;;;5137420;27;20550;-73
2022/06/04 01:55:00;;;;;;;6.67;6.07;;;18.10;99.90;;;;;;5136610;27;20509;-73
2022/06/04 01:57:35;;;;;;;6.97;6.37;;;18.20;99.90;;;;;;5137029;27;21207;-73
2022/06/04 02:00:08;;;;;;;6.60;6.00;;;18.20;99.90;;;;;;5137359;27;20528;-73
2022/06/04 02:02:41;;;;;;;5.60;5.10;;;18.10;99.90;;;;;;5135608;27;20524;-73
2022/06/04 02:05:14;;;;;;;5.47;5.00;;;18.00;99.90;;;;;;5134884;27;20448;-73
2022/06/04 02:07:47;;;;;;;4.90;4.50;;;18.00;99.90;;;;;;5135412;27;20818;-73
2022/06/04 02:10:21;;;;;;;6.23;3.90;;;18.00;99.90;;;;;;5134887;27;20440;-73
2022/06/04 02:12:52;;;;;;;4.67;3.33;;;18.00;99.90;;;;;;5135039;27;20754;-73
2022/06/04 02:15:23;;;;;;;4.80;3.83;;;18.00;99.90;;;;;;5134478;27;20451;-72
2022/06/04 02:17:57;;;;;;;3.47;3.27;;;17.90;99.90;;;;;;5134561;27;20793;-73
2022/06/04 02:20:24;;;;;;;2.50;2.23;;;17.90;99.90;;;;;;5135298;27;20842;-73
2022/06/04 02:22:52;;;;;;;2.93;2.33;;;17.80;99.90;;;;;;5135001;28;20546;-72
2022/06/04 02:25:21;;;;;;;2.57;2.37;;;17.70;99.90;;;;;;5135674;28;20443;-72
2022/06/04 02:27:50;;;;;;;5.03;2.67;;;17.70;99.90;;;;;;5136301;28;20928;-73
2022/06/04 02:30:18;;;;;;;3.30;1.67;;;17.60;99.90;;;;;;5136463;28;20444;-73
2022/06/04 02:32:56;;;;;;;2.93;2.67;;;17.60;99.90;;;;;;5136126;28;20463;-73
2022/06/04 02:35:27;;;;;;;3.23;2.93;;;17.60;99.90;;;;;;5136490;28;20539;-73
2022/06/04 02:37:59;;;;;;;3.17;2.87;;;17.60;99.90;;;;;;5137150;28;20451;-73
2022/06/04 02:40:32;;;;;;;2.90;2.70;;;17.60;99.90;;;;;;5137059;28;20562;-72
2022/06/04 02:43:06;;;;;;;2.63;2.43;;;17.50;99.90;;;;;;5136876;28;20547;-73
2022/06/04 02:45:35;;;;;;;2.37;2.17;;;17.60;99.90;;;;;;5136707;28;20444;-72
2022/06/04 02:48:10;;;;;;;3.73;2.77;;;17.60;99.90;;;;;;5136038;28;20520;-72
2022/06/04 02:50:42;;;;;;;2.50;2.30;;;17.50;99.90;;;;;;5136918;28;20533;-72
2022/06/04 02:53:10;;;;;;;4.73;2.10;;;17.50;99.90;;;;;;5136694;28;20456;-73
2022/06/04 02:55:42;;;;;;;3.13;2.73;;;17.50;99.90;;;;;;5135539;28;20452;-73
2022/06/04 02:58:16;;;;;;;3.30;2.10;;;17.50;99.90;;;;;;5135166;28;20546;-73
2022/06/04 03:00:44;;;;;;;3.70;1.87;;;17.50;99.90;;;;;;5137544;27;20480;-72
2022/06/04 03:03:12;;;;;;;5.50;3.33;;;17.50;99.90;;;;;;5139265;27;20452;-73
2022/06/04 03:05:50;;;;;;;3.00;2.70;;;17.50;99.90;;;;;;5139227;27;20478;-72
2022/06/04 03:08:17;;;;;;;3.73;2.60;;;17.50;99.90;;;;;;5139294;27;20500;-72
2022/06/04 03:10:44;;;;;;;3.73;3.03;;;17.50;99.90;;;;;;5138392;27;20858;-72
2022/06/04 03:13:12;;;;;;;3.27;2.90;;;17.60;99.90;;;;;;5137677;27;20480;-73
2022/06/04 03:15:39;;;;;;;2.83;2.63;;;17.70;99.90;;;;;;5138379;27;20501;-73
2022/06/04 03:18:07;;;;;;;3.10;2.80;;;17.80;99.90;;;;;;5139230;27;20458;-72
2022/06/04 03:20:34;;;;;;;3.27;2.10;;;17.80;99.90;;;;;;5139315;27;20483;-72
2022/06/04 03:23:01;;;;;;;2.37;2.17;;;17.90;99.90;;;;;;5139339;27;20905;-72
2022/06/04 03:25:30;;;;;;;3.60;3.10;;;17.90;99.90;;;;;;5139596;27;20458;-73
2022/06/04 03:27:57;;;;;;;4.50;2.83;;;17.80;99.90;;;;;;5140429;27;20498;-73
2022/06/04 03:30:26;;;;;;;1.90;1.60;;;17.80;99.90;;;;;;5140152;27;20501;-73
2022/06/04 03:32:53;;;;;;;3.53;2.50;;;17.90;99.90;;;;;;5139182;27;20462;-72
2022/06/04 03:35:21;;;;;;;2.90;2.30;;;17.90;99.90;;;;;;5140073;27;20494;-73
2022/06/04 03:37:48;;;;;;;3.60;2.37;;;17.90;99.90;;;;;;5140457;27;20451;-72
2022/06/04 03:40:15;;;;;;;3.30;2.87;;;18.10;99.90;;;;;;5140016;27;20536;-72
2022/06/04 03:42:42;;;;;;;2.93;2.70;;;18.10;99.90;;;;;;5139289;27;20461;-73
2022/06/04 03:45:12;;;;;;;2.90;2.20;;;18.20;99.90;;;;;;5139718;27;20444;-73
2022/06/04 03:47:41;;;;;;;4.40;2.50;;;18.20;99.90;;;;;;5140037;27;20448;-73
2022/06/04 03:50:10;;;;;;;2.87;2.67;;;18.20;99.90;;;;;;5139847;27;20444;-73
2022/06/04 03:52:38;;;;;;;4.10;2.97;;;18.20;99.90;;;;;;5140287;27;20472;-73
2022/06/04 03:55:06;;;;;;;3.90;3.60;;;18.20;99.90;;;;;;5138847;27;20497;-73
2022/06/04 03:57:48;;;;;;;3.47;2.93;;;18.20;99.90;;;;;;5138024;27;20463;-73
2022/06/04 04:00:19;;;;;;;2.93;2.70;;;18.20;99.90;;;;;;5138283;27;20954;-73
2022/06/04 04:02:49;;;;;;;3.43;3.13;;;18.20;99.90;;;;;;5138124;27;20488;-73
2022/06/04 04:05:17;;;;;;;3.97;3.50;;;18.20;99.90;;;;;;5138149;27;20528;-73
2022/06/04 04:07:44;;;;;;;2.73;2.53;;;18.20;99.90;;;;;;5138280;27;20456;-73
2022/06/04 04:10:12;;;;;;;1.77;1.63;;;18.20;99.90;;;;;;5139099;27;20441;-73
2022/06/04 04:12:39;;;;;;;2.53;2.33;;;18.10;99.90;;;;;;5137956;27;20555;-73
2022/06/04 04:15:07;;;;;;;2.50;2.30;;;18.10;99.90;;;;;;5138328;27;20455;-73
2022/06/04 04:17:36;;;;;;;2.30;1.90;;;18.10;99.90;;;;;;5137767;27;20948;-73
2022/06/04 04:20:07;;;;;;;2.87;1.87;;;18.10;99.90;;;;;;5136445;27;20750;-73
2022/06/04 04:22:34;;;;;;;4.67;1.73;;;18.20;99.90;;;;;;5136882;27;20733;-73
2022/06/04 04:25:01;;;;;;;2.50;1.50;;;18.20;99.90;;;;;;5137320;27;20451;-73
2022/06/04 04:27:29;;;;;;;2.60;1.67;;;18.20;99.90;;;;;;5137532;27;20796;-73
2022/06/04 04:29:56;;;;;;;2.90;2.70;;;18.20;99.90;;;;;;5138514;27;20448;-73
2022/06/04 04:32:23;;;;;;;3.43;2.83;;;18.30;99.90;;;;;;5137475;27;20456;-72
2022/06/04 04:34:50;;;;;;;2.97;2.40;;;18.10;99.90;;;;;;5138225;27;20450;-73
2022/06/04 04:37:18;;;;;;;2.40;1.63;;;18.20;99.90;;;;;;5137271;27;20455;-73
2022/06/04 04:39:45;;;;;;;3.23;1.80;;;18.20;99.90;;;;;;5138645;27;20452;-73
2022/06/04 04:42:12;;;;;;;2.20;2.00;;;18.10;99.90;;;;;;5138725;27;20463;-73
2022/06/04 04:44:39;;;;;;;2.63;2.43;;;18.00;99.90;;;;;;5138267;27;20451;-73
2022/06/04 04:47:06;;;;;;;2.20;2.00;;;18.00;99.90;;;;;;5138186;27;20444;-73
2022/06/04 04:49:33;;;;;;;2.23;1.97;;;18.10;99.90;;;;;;5138524;27;20475;-73
2022/06/04 04:52:00;;;;;;;2.37;1.63;;;18.20;99.90;;;;;;5138568;27;20494;-73
2022/06/04 04:54:29;;;;;;;2.40;1.70;;;18.30;99.90;;;;;;5138701;27;20447;-73
2022/06/04 04:56:56;;;;;;;1.77;1.43;;;18.50;99.90;;;;;;5137681;27;20452;-73
2022/06/04 04:59:23;;;;;;;3.50;1.70;;;18.60;99.90;;;;;;5138027;27;20489;-73
2022/06/04 05:01:50;;;;;;;1.90;1.70;;;18.70;99.90;;;;;;5120652;27;20492;-73
2022/06/04 05:04:17;;;;;;;2.37;1.70;;;18.80;99.90;;;;;;5136702;27;20516;-73
2022/06/04 05:06:44;;;;;;;3.17;1.93;;;18.90;99.90;;;;;;5134399;27;20834;-73
2022/06/04 05:09:11;;;;;;;2.10;1.90;;;19.10;96.20;;;;;;5137001;27;20443;-72
2022/06/04 05:11:40;;;;;;;2.67;1.97;;;19.20;86.60;;;;;;5136789;27;20473;-73
2022/06/04 05:14:07;;;;;;;2.07;1.73;;;19.20;80.40;;;;;;5136886;27;20610;-73
2022/06/04 05:16:36;;;;;;;1.60;1.43;;;19.30;79.00;;;;;;5136907;27;20963;-73
2022/06/04 05:19:04;;;;;;;1.90;1.30;;;19.40;75.40;;;;;;5137185;27;20444;-73
2022/06/04 05:21:41;;;;;;;2.70;1.37;;;19.40;56.70;;;;;;5136560;27;20527;-73
2022/06/04 05:24:15;;;;;;;2.20;1.20;;;19.40;49.10;;;;;;5136431;27;20452;-73
2022/06/04 05:26:44;;;;;;;2.33;1.67;;;19.40;45.70;;;;;;5137458;27;20836;-73
2022/06/04 05:29:11;;;;;;;3.00;1.50;;;19.60;41.90;;;;;;5138309;27;20519;-73
2022/06/04 05:31:39;;;;;;;3.80;2.57;;;19.70;27.00;;;;;;5122331;27;20456;-73
2022/06/04 05:34:06;;;;;;;1.43;1.30;;;19.80;23.70;;;;;;5135721;27;20443;-73
2022/06/04 05:36:34;;;;;;;2.20;2.00;;;19.80;19.60;;;;;;5135600;27;20793;-73
2022/06/04 05:39:01;;;;;;;1.90;1.50;;;19.70;28.00;;;;;;5135488;27;20444;-73
2022/06/04 05:41:28;;;;;;;1.70;1.30;;;19.70;42.60;;;;;;5135521;27;20576;-73
2022/06/04 05:43:56;;;;;;;2.20;1.50;;;19.60;53.00;;;;;;5134863;27;20452;-73
2022/06/04 05:46:23;;;;;;;1.77;1.40;;;19.60;70.20;;;;;;5135043;27;20512;-73
2022/06/04 05:48:50;;;;;;;1.50;1.10;;;19.60;73.70;;;;;;5134911;27;20509;-73
2022/06/04 05:51:24;;;;;;;2.00;1.60;;;19.60;83.30;;;;;;5135344;27;20451;-75
2022/06/04 05:53:53;;;;;;;1.90;1.30;;;19.60;92.50;;;;;;5135933;27;20449;-75
2022/06/04 05:56:22;;;;;;;1.43;1.33;;;19.60;92.10;;;;;;5135296;27;20463;-74
2022/06/04 05:58:51;;;;;;;3.03;2.33;;;19.60;92.80;;;;;;5135805;27;20871;-74
2022/06/04 06:01:21;;;;;;;2.33;1.47;;;19.60;89.80;;;;;;5135354;27;20963;-75
2022/06/04 06:03:48;;;;;;;1.50;0.90;;;19.60;91.00;;;;;;5124929;27;20810;-74
2022/06/04 06:06:18;;;;;;;2.50;1.10;;;19.40;89.80;;;;;;5105835;28;20584;-75
2022/06/04 06:08:45;;;;;;;1.53;1.10;;;19.30;91.90;;;;;;5102539;28;20453;-75
2022/06/04 06:11:14;;;;;;;1.60;1.30;;;19.40;61.70;;;;;;5104987;28;20466;-74
2022/06/04 06:13:43;;;;;;;2.40;1.53;;;19.30;62.50;;;;;;5096540;28;20802;-75
2022/06/04 06:16:12;;;;;;;2.83;1.10;;;19.30;75.50;;;;;;5096818;28;20469;-74
2022/06/04 06:18:41;;;;;;;2.87;1.47;;;19.20;99.90;;;;;;5135878;27;20500;-73
2022/06/04 06:21:10;;;;;;;2.60;1.30;;;19.00;99.90;;;;;;5134056;27;20483;-74
2022/06/04 06:23:38;;;;;;;1.80;1.20;;;18.70;99.90;;;;;;5135857;27;20444;-74
2022/06/04 06:26:06;;;;;;;2.10;1.30;;;18.60;99.90;;;;;;5126532;28;20518;-73
2022/06/04 06:28:35;;;;;;;2.03;1.53;;;18.50;99.90;;;;;;5130745;28;20889;-73
2022/06/04 06:31:03;;;;;;;2.00;1.43;;;18.30;99.90;;;;;;5132428;28;20500;-72
2022/06/04 06:33:30;;;;;;;4.63;2.13;;;18.30;99.90;;;;;;5134490;28;20495;-73
2022/06/04 06:36:00;;;;;;;1.60;1.20;;;18.20;99.90;;;;;;5132952;27;20475;-72
2022/06/04 06:38:27;;;;;;;3.03;1.93;;;18.10;99.90;;;;;;5136886;27;20444;-72
2022/06/04 06:40:56;;;;;;;2.67;1.60;;;18.10;99.90;;;;;;5137508;27;20540;-72
2022/06/04 06:43:31;;;;;;;2.73;2.03;;;18.00;99.90;;;;;;5137996;27;20539;-72
2022/06/04 06:46:03;;;;;;;2.80;2.07;;;17.90;99.90;;;;;;5132885;27;20471;-72
2022/06/04 06:48:30;;;;;;;2.40;1.73;;;17.90;99.90;;;;;;5136951;27;20543;-73
2022/06/04 06:50:58;;;;;;;2.33;1.53;;;17.90;99.90;;;;;;5131085;27;21182;-73
2022/06/04 06:53:26;;;;;;;4.60;2.27;;;17.90;99.90;;;;;;5135951;27;20470;-72
2022/06/04 06:55:53;;;;;;;3.23;2.40;;;18.10;99.90;;;;;;5130315;27;20468;-72
2022/06/04 06:58:20;;;;;;;3.17;1.53;;;18.10;99.90;;;;;;5137705;27;20448;-71
2022/06/04 07:00:47;;;;;;;2.37;2.00;;;18.20;99.90;;;;;;5135796;27;21125;-72
2022/06/04 07:03:14;;;;;;;2.10;1.70;;;18.30;99.90;;;;;;5129075;27;20449;-72
2022/06/04 07:05:41;;;;;;;2.90;2.50;;;18.40;99.90;;;;;;5133034;27;21110;-72
2022/06/04 07:08:09;;;;;;;3.70;2.37;;;18.50;99.90;;;;;;5136318;27;20443;-72
2022/06/04 07:10:36;;;;;;;4.13;2.00;;;18.60;99.90;;;;;;5135555;27;20443;-75
2022/06/04 07:13:03;;;;;;;3.23;2.23;;;18.60;99.90;;;;;;5134135;27;20463;-75
2022/06/04 07:15:30;;;;;;;2.73;2.20;;;18.70;99.90;;;;;;5134319;27;20440;-71
2022/06/04 07:17:57;;;;;;;2.83;2.60;;;18.80;99.90;;;;;;5133333;27;20523;-70
2022/06/04 07:20:24;;;;;;;2.63;2.00;;;18.80;99.90;;;;;;5137533;27;20509;-70
2022/06/04 07:22:52;;;;;;;4.17;2.00;;;18.80;99.90;;;;;;5137661;27;20490;-70
2022/06/04 07:25:22;;;;;;;4.70;2.40;;;18.90;99.90;;;;;;5126419;27;20597;-70
2022/06/04 07:27:49;;;;;;;2.90;2.33;;;19.10;99.90;;;;;;5139782;27;20546;-70
2022/06/04 07:30:16;;;;;;;2.60;2.20;;;19.10;99.90;;;;;;5137908;27;20459;-70
2022/06/04 07:32:43;;;;;;;2.43;1.70;;;19.40;99.90;;;;;;5132969;27;20455;-70
2022/06/04 07:35:10;;;;;;;6.33;4.30;;;19.70;99.90;;;;;;5132294;27;20459;-70
2022/06/04 07:37:37;;;;;;;2.70;1.60;;;20.00;99.90;;;;;;5136924;27;20516;-70
2022/06/04 07:40:04;;;;;;;1.97;1.77;;;20.40;99.90;;;;;;5138403;27;20448;-70
2022/06/04 07:42:33;;;;;;;3.83;1.70;;;20.60;99.90;;;;;;5132536;27;20544;-72
2022/06/04 07:45:00;;;;;;;3.13;1.80;;;20.80;99.90;;;;;;5134381;27;20517;-70
2022/06/04 07:47:27;;;;;;;1.93;1.67;;;20.80;99.90;;;;;;5137978;27;20451;-70
2022/06/04 07:49:55;;;;;;;2.53;1.83;;;20.70;99.90;;;;;;5112221;27;20461;-69
2022/06/04 07:52:23;;;;;;;1.70;1.40;;;20.70;99.90;;;;;;5119343;27;20460;-69
2022/06/04 07:54:50;;;;;;;2.30;2.10;;;20.60;99.90;;;;;;5120962;27;20459;-69
2022/06/04 07:57:17;;;;;;;2.10;1.93;;;20.60;99.90;;;;;;5135341;27;21108;-69
2022/06/04 07:59:45;;;;;;;3.90;1.80;;;20.70;99.90;;;;;;5113194;27;20467;-70
2022/06/04 08:02:13;;;;;;;2.50;1.70;;;20.70;99.90;;;;;;5121858;27;21092;-70
2022/06/04 08:04:40;;;;;;;7.23;2.50;;;20.70;99.90;;;;;;5122948;27;20464;-70
2022/06/04 08:07:07;;;;;;;2.60;1.90;;;20.80;99.90;;;;;;5126916;27;20467;-71
2022/06/04 08:09:35;;;;;;;2.60;2.37;;;20.80;99.90;;;;;;5117324;28;20515;-71
2022/06/04 08:12:02;;;;;;;3.13;2.83;;;20.70;99.90;;;;;;5123087;27;20460;-72
2022/06/04 08:14:29;;;;;;;3.97;3.10;;;20.60;99.90;;;;;;5132353;27;20555;-72
2022/06/04 08:17:00;;;;;;;3.03;2.73;;;20.60;99.90;;;;;;5120677;27;20940;-72
2022/06/04 08:19:29;;;;;;;3.30;3.00;;;20.60;99.90;;;;;;5111734;27;20460;-72
2022/06/04 08:21:57;;;;;;;2.90;2.70;;;20.80;99.90;;;;;;5118642;27;20480;-72
2022/06/04 08:24:25;;;;;;;2.37;2.17;;;20.90;99.90;;;;;;5113877;28;20464;-72
2022/06/04 08:26:58;;;;;;;2.43;1.80;;;21.10;99.90;;;;;;5123823;27;20459;-73
2022/06/04 08:29:26;;;;;;;3.20;2.07;;;21.40;99.90;;;;;;5116398;27;20468;-72
2022/06/04 08:31:53;;;;;;;2.50;2.30;;;22.00;99.90;;;;;;5116557;27;20960;-73
2022/06/04 08:34:22;;;;;;;2.03;1.93;;;22.10;99.90;;;;;;5112611;28;20503;-71
2022/06/04 08:36:49;;;;;;;3.30;1.80;;;22.10;99.90;;;;;;5119500;27;20513;-71
2022/06/04 08:39:16;;;;;;;3.30;3.00;;;22.10;99.90;;;;;;5115288;27;20488;-71
2022/06/04 08:42:06;;;;;;;2.93;2.27;;;21.70;99.90;;;;;;5115303;28;20790;-71
2022/06/04 08:44:35;;;;;;;5.10;2.57;;;21.50;99.90;;;;;;5121684;27;20457;-71
2022/06/04 08:47:11;;;;;;;3.70;2.40;;;21.60;99.90;;;;;;5112970;28;20492;-73
2022/06/04 08:49:44;;;;;;;3.30;2.97;;;21.60;99.90;;;;;;5112466;27;20464;-71
2022/06/04 08:52:16;;;;;;;2.93;2.73;;;21.60;99.90;;;;;;5109925;27;20459;-72
2022/06/04 08:57:37;;;;;;;4.13;3.30;;;21.50;99.90;;;;;;5115159;27;20455;-73
2022/06/04 09:00:11;;;;;;;5.00;4.60;;;21.50;99.90;;;;;;5111308;27;20475;-72
2022/06/04 09:02:59;;;;;;;1.70;1.53;;;21.80;99.90;;;;;;5113489;28;20482;-72
2022/06/04 09:05:45;;;;;;;1.80;1.57;;;22.00;99.90;;;;;;5111746;27;20473;-73
2022/06/04 09:08:19;;;;;;;2.00;1.60;;;22.40;99.90;;;;;;5108179;28;20460;-72
2022/06/04 09:10:50;;;;;;;1.70;1.60;;;22.70;99.90;;;;;;5106646;27;20453;-72
2022/06/04 09:13:24;;;;;;;1.77;1.30;;;22.90;85.70;;;;;;5111218;27;20456;-72
2022/06/04 09:15:55;;;;;;;2.47;1.50;;;23.10;40.80;;;;;;5108651;28;20517;-72
2022/06/04 09:18:27;;;;;;;3.70;1.70;;;22.90;27.10;;;;;;5112125;28;20494;-71
2022/06/04 09:20:59;;;;;;;1.60;1.27;;;22.90;28.40;;;;;;5110136;27;20461;-72
2022/06/04 09:23:42;;;;;;;1.83;1.60;;;23.30;40.00;;;;;;5108335;28;20485;-72
2022/06/04 09:26:24;;;;;;;2.03;1.27;;;23.50;8.30;;;;;;5111868;27;20568;-72
2022/06/04 09:29:01;;;;;;;2.10;1.90;;;23.70;26.10;;;;;;5113988;28;20468;-72
2022/06/04 09:31:34;;;;;;;3.47;1.67;;;24.20;13.90;;;;;;5104901;27;20510;-71
2022/06/04 09:34:04;;;;;;;2.17;1.47;;;24.50;2.60;;;;;;5111615;28;20922;-70
2022/06/04 09:36:36;;;;;;;2.37;2.17;;;24.80;1.00;;;;;;5105416;27;20619;-71
2022/06/04 09:39:05;;;;;;;2.33;1.30;;;25.20;1.00;;;;;;5102679;28;20466;-71
2022/06/04 09:41:34;;;;;;;4.93;1.60;;;24.90;1.00;;;;;;5109903;27;21056;-72
2022/06/04 09:44:08;;;;;;;2.53;2.30;;;25.00;1.00;;;;;;5104066;28;20493;-72
2022/06/04 09:46:36;;;;;;;3.80;3.50;;;25.00;1.00;;;;;;5111784;28;20464;-72
2022/06/04 09:49:14;;;;;;;2.23;2.03;;;24.60;1.00;;;;;;5110894;28;20971;-71
2022/06/04 09:51:44;;;;;;;2.77;1.60;;;24.30;14.70;;;;;;5106957;28;20456;-72
2022/06/04 09:54:23;;;;;;;1.77;1.60;;;24.30;1.00;;;;;;5107809;27;20858;-72
2022/06/04 09:56:54;;;;;;;2.20;2.10;;;24.50;1.00;;;;;;5111470;28;20551;-72
2022/06/04 09:59:24;;;;;;;2.77;2.10;;;24.60;1.00;;;;;;5111870;27;20471;-73
2022/06/04 10:01:57;;;;;;;2.43;2.23;;;24.80;1.00;;;;;;5105027;28;20484;-71
2022/06/04 10:04:24;;;;;;;2.90;2.33;;;24.80;1.00;;;;;;5114441;27;20469;-72
2022/06/04 10:06:53;;;;;;;5.60;3.30;;;24.60;1.00;;;;;;5127934;27;20467;-72
2022/06/04 10:12:16;;;;;;;1.93;1.80;;;25.10;1.00;;;;;;5126379;27;20925;-71
2022/06/04 10:14:58;;;;;;;1.60;1.37;;;25.30;1.00;;;;;;5129076;27;20906;-71
2022/06/04 10:17:36;;;;;;;3.00;2.80;;;25.20;1.00;;;;;;5106942;28;20448;-71
2022/06/04 10:20:04;;;;;;;1.80;1.70;;;24.90;1.00;;;;;;5126274;27;20528;-71
2022/06/04 10:22:33;;;;;;;2.30;2.10;;;24.60;1.00;;;;;;5098867;28;20511;-71
2022/06/04 10:25:03;;;;;;;2.70;2.50;;;24.30;1.00;;;;;;5127184;27;20471;-71
2022/06/04 10:27:42;;;;;;;3.50;3.13;;;24.10;1.00;;;;;;5134988;27;20504;-71
2022/06/04 10:30:23;;;;;;;4.50;4.10;;;24.00;1.00;;;;;;5114750;27;20487;-71
2022/06/04 10:33:01;;;;;;;4.40;4.10;;;23.50;24.70;;;;;;5129296;27;20444;-72
2022/06/04 10:35:40;;;;;;;4.57;4.27;;;23.40;63.60;;;;;;5139446;27;20455;-72
2022/06/04 10:38:21;;;;;;;2.43;2.23;;;23.40;99.10;;;;;;5123249;27;20436;-73
2022/06/04 10:41:02;;;;;;;5.30;3.20;;;23.50;72.80;;;;;;5121062;27;20560;-73
2022/06/04 10:43:46;;;;;;;2.17;1.80;;;23.60;91.60;;;;;;5113909;28;20483;-72
2022/06/04 10:46:22;;;;;;;3.00;2.40;;;24.00;21.30;;;;;;5113626;28;20533;-71
2022/06/04 10:49:03;;;;;;;2.17;1.97;;;24.20;1.00;;;;;;5136421;27;20438;-71
2022/06/04 10:51:46;;;;;;;7.43;6.40;;;24.30;1.00;;;;;;5129059;27;20455;-71
2022/06/04 10:54:19;;;;;;;2.63;2.23;;;24.30;1.00;;;;;;5133341;27;20448;-72
2022/06/04 10:56:49;;;;;;;2.13;1.57;;;24.00;1.00;;;;;;5124241;27;20462;-73
2022/06/04 10:59:21;;;;;;;2.47;1.60;;;23.90;1.00;;;;;;5106514;28;20479;-72
2022/06/04 11:01:55;;;;;;;2.40;2.10;;;23.70;1.00;;;;;;5130519;27;20488;-72
2022/06/04 11:04:33;;;;;;;4.20;2.23;;;23.30;1.00;;;;;;5130437;27;20993;-72
2022/06/04 11:07:15;;;;;;;2.90;2.10;;;22.80;19.90;;;;;;5109599;28;20528;-72
2022/06/04 11:09:45;;;;;;;3.50;3.07;;;22.70;36.70;;;;;;5099298;28;20472;-72
2022/06/04 11:12:26;;;;;;;2.50;2.10;;;22.80;45.70;;;;;;5105692;28;20617;-72
2022/06/04 11:14:55;;;;;;;4.53;3.50;;;22.80;24.40;;;;;;5100430;28;20458;-71
2022/06/04 11:17:25;;;;;;;3.60;3.30;;;23.00;54.80;;;;;;5108804;28;20494;-71
2022/06/04 11:20:06;;;;;;;4.87;4.00;;;22.80;47.60;;;;;;5114181;28;20510;-72
2022/06/04 11:22:37;;;;;;;7.10;3.20;;;23.00;48.60;;;;;;5113126;28;20938;-73
2022/06/04 11:25:24;;;;;;;2.50;2.30;;;23.00;53.80;;;;;;5117338;28;20452;-74
2022/06/04 11:27:54;;;;;;;2.90;2.60;;;22.80;55.50;;;;;;5114400;28;20859;-75
2022/06/04 11:30:31;;;;;;;6.27;5.77;;;22.80;52.90;;;;;;5115714;28;20489;-71
2022/06/04 11:33:05;;;;;;;4.47;3.50;;;22.70;82.70;;;;;;5098565;28;20541;-73
2022/06/04 11:35:41;;;;;;;3.17;2.87;;;22.70;92.60;;;;;;5101166;28;20884;-75
2022/06/04 11:38:31;;;;;;;10.73;8.80;;;22.80;72.50;;;;;;5116791;28;20501;-72
2022/06/04 11:41:16;;;;;;;4.63;4.20;;;22.90;92.20;;;;;;5108700;28;20465;-74
2022/06/04 11:44:01;;;;;;;5.20;4.70;;;22.90;73.30;;;;;;5098835;28;20920;-71
2022/06/04 11:46:43;;;;;;;7.07;6.40;;;22.90;59.80;;;;;;5112492;28;20445;-74
2022/06/04 11:49:31;;;;;;;5.80;5.20;;;22.90;69.70;;;;;;5116060;27;20516;-72
2022/06/04 11:52:12;;;;;;;7.40;6.70;;;22.80;68.20;;;;;;5111469;28;20539;-73
2022/06/04 11:55:05;;;;;;;7.03;6.43;;;22.70;94.50;;;;;;5106128;28;20448;-73
2022/06/04 11:57:47;;;;;;;7.20;6.50;;;22.70;96.40;;;;;;5110946;28;20526;-71
2022/06/04 12:00:22;;;;;;;5.73;5.23;;;22.80;94.10;;;;;;5105910;28;20464;-72
2022/06/04 12:02:56;;;;;;;7.13;6.63;;;22.90;85.10;;;;;;5107504;28;20483;-72
2022/06/04 12:05:37;;;;;;;6.10;5.60;;;23.30;85.60;;;;;;5113298;27;20536;-73
2022/06/04 12:08:08;;;;;;;7.97;7.23;;;23.60;42.70;;;;;;5087734;28;20457;-73
2022/06/04 12:11:02;;;;;;;4.07;3.73;;;23.70;30.60;;;;;;5129060;27;20793;-74
2022/06/04 12:13:39;;;;;;;7.83;7.03;;;24.00;1.00;;;;;;5119208;27;20447;-73
2022/06/04 12:16:13;;;;;;;3.23;2.93;;;23.90;3.80;;;;;;5123917;27;20445;-74
2022/06/04 12:18:46;;;;;;;7.63;7.00;;;23.90;1.00;;;;;;5102569;27;20456;-73
2022/06/04 12:24:17;;;;;;;7.50;6.70;;;24.00;1.00;;;;;;5117428;27;20790;-73
2022/06/04 12:26:48;;;;;;;5.20;4.80;;;24.60;1.00;;;;;;5116842;27;20444;-74
2022/06/04 12:29:35;;;;;;;4.60;4.30;;;25.10;1.00;;;;;;5113565;28;20548;-73
2022/06/04 12:32:05;;;;;;;5.30;4.80;;;25.40;1.00;;;;;;5109419;27;20467;-74
2022/06/04 12:34:36;;;;;;;4.43;4.13;;;25.30;1.00;;;;;;5113385;28;21086;-73
2022/06/04 12:37:05;;;;;;;6.90;5.50;;;25.40;1.00;;;;;;5110149;27;20469;-73
2022/06/04 12:39:38;;;;;;;6.50;5.90;;;25.30;1.00;;;;;;5098917;28;20527;-73
2022/06/04 12:42:14;;;;;;;6.30;5.80;;;25.80;1.00;;;;;;5105548;28;20464;-72
2022/06/04 12:44:55;;;;;;;5.10;4.80;;;26.20;1.00;;;;;;5112883;28;20555;-72
2022/06/04 12:47:25;;;;;;;5.90;5.40;;;26.30;1.00;;;;;;5105722;28;20449;-72
2022/06/04 12:49:58;;;;;;;5.77;5.37;;;26.50;99.90;;;;;;5114357;28;20484;-73
2022/06/04 12:52:39;;;;;;;7.40;6.70;;;26.20;1.00;;;;;;5112198;28;20436;-73
2022/06/04 12:55:17;;;;;;;6.60;6.00;;;26.50;1.00;;;;;;5096795;27;21044;-72
2022/06/04 12:57:49;;;;;;;4.30;4.00;;;26.10;99.90;;;;;;5111574;28;20445;-72
2022/06/04 13:00:31;;;;;;;5.90;5.50;;;26.50;1.00;;;;;;5105880;28;20511;-72
2022/06/04 13:03:14;;;;;;;6.40;4.90;;;26.50;1.00;;;;;;5108662;28;20508;-72
2022/06/04 13:06:11;;;;;;;6.27;5.77;;;26.50;1.00;;;;;;5103952;27;20571;-71
2022/06/04 13:08:46;;;;;;;5.67;5.17;;;26.20;15.40;;;;;;5108665;27;20500;-71
2022/06/04 13:11:31;;;;;;;3.60;3.40;;;26.00;99.90;;;;;;5133318;27;20443;-71
2022/06/04 13:14:08;;;;;;;4.90;4.40;;;26.00;1.00;;;;;;5115836;27;20792;-72
2022/06/04 13:16:48;;;;;;;5.30;4.90;;;26.60;12.10;;;;;;5131843;27;20550;-72
2022/06/04 13:19:49;;;;;;;4.50;4.20;;;27.20;1.00;;;;;;5130999;27;20527;-72
2022/06/04 13:22:22;;;;;;;4.43;4.03;;;27.70;99.90;;;;;;5128453;27;20456;-71
2022/06/04 13:24:50;;;;;;;5.30;5.00;;;27.40;99.90;;;;;;5128102;27;20448;-72
2022/06/04 13:27:28;;;;;;;4.83;4.33;;;26.20;99.90;;;;;;5137501;27;20459;-72
2022/06/04 13:29:58;;;;;;;4.13;2.60;;;26.40;1.00;;;;;;5145757;27;20459;-72